Terminal Aerodrome Forecast
Issued by NWS

Home | Current Version | Previous Version | Text Only | Print | Product List | Glossary On
Versions: 1 2 3 4 5 6 7 8 9 10 11 12 13 14 15 16 17 18 19 20 21 22 23 24 25 26 27 28 29 30 31 32 33 34 35 36 37 38
000
FTUS41 KRNK 221140
TAFBCB
TAF
KBCB 221140Z 2212/2312 00000KT 3SM BR SCT003 BKN100
     FM221300 27003KT 6SM -SHRA BKN035 OVC090
     FM221400 29006KT P6SM SCT040 BKN100 OVC250
     FM222000 30005KT 5SM SHRA VCTS BKN035CB OVC070
     FM230200 VRB03KT 3SM BR SCT003 BKN100=

USA.gov is the U.S. government's official web portal to all federal, state and local government web resources and services.